sensor_id;sensor_type;location;lat;lon;timestamp;P1;durP1;ratioP1;P2;durP2;ratioP2
66707;SDS011;53622;0.000;0.000;2023-10-31T00:00:59;0.20;;;0.15;;
66707;SDS011;53622;0.000;0.000;2023-10-31T00:03:29;0.20;;;0.20;;
66707;SDS011;53622;0.000;0.000;2023-10-31T00:05:57;0.50;;;0.22;;
66707;SDS011;53622;0.000;0.000;2023-10-31T00:08:26;0.30;;;0.25;;
66707;SDS011;53622;0.000;0.000;2023-10-31T00:10:55;0.30;;;0.17;;
66707;SDS011;53622;0.000;0.000;2023-10-31T00:13:23;0.50;;;0.30;;
66707;SDS011;53622;0.000;0.000;2023-10-31T00:15:52;0.80;;;0.35;;
66707;SDS011;53622;0.000;0.000;2023-10-31T00:18:21;0.60;;;0.20;;
66707;SDS011;53622;0.000;0.000;2023-10-31T00:20:51;1.50;;;0.20;;
66707;SDS011;53622;0.000;0.000;2023-10-31T00:23:19;0.88;;;0.40;;
66707;SDS011;53622;0.000;0.000;2023-10-31T00:25:50;0.45;;;0.30;;
66707;SDS011;53622;0.000;0.000;2023-10-31T00:28:19;0.45;;;0.30;;
66707;SDS011;53622;0.000;0.000;2023-10-31T00:30:47;0.57;;;0.38;;
66707;SDS011;53622;0.000;0.000;2023-10-31T00:33:16;0.50;;;0.40;;
66707;SDS011;53622;0.000;0.000;2023-10-31T00:35:45;0.40;;;0.20;;
66707;SDS011;53622;0.000;0.000;2023-10-31T00:38:15;0.13;;;0.13;;
66707;SDS011;53622;0.000;0.000;2023-10-31T00:40:44;0.20;;;0.20;;
66707;SDS011;53622;0.000;0.000;2023-10-31T00:43:13;0.30;;;0.30;;
66707;SDS011;53622;0.000;0.000;2023-10-31T00:45:41;1.10;;;0.40;;
66707;SDS011;53622;0.000;0.000;2023-10-31T00:48:10;0.25;;;0.25;;
66707;SDS011;53622;0.000;0.000;2023-10-31T00:50:39;1.08;;;0.30;;
66707;SDS011;53622;0.000;0.000;2023-10-31T00:53:07;0.57;;;0.30;;
66707;SDS011;53622;0.000;0.000;2023-10-31T00:55:38;0.88;;;0.50;;
66707;SDS011;53622;0.000;0.000;2023-10-31T00:58:07;0.63;;;0.22;;
66707;SDS011;53622;0.000;0.000;2023-10-31T01:00:35;0.30;;;0.28;;
66707;SDS011;53622;0.000;0.000;2023-10-31T01:03:05;0.30;;;0.30;;
66707;SDS011;53622;0.000;0.000;2023-10-31T01:05:34;0.20;;;0.20;;
66707;SDS011;53622;0.000;0.000;2023-10-31T01:08:02;0.77;;;0.30;;
66707;SDS011;53622;0.000;0.000;2023-10-31T01:10:32;0.43;;;0.30;;
66707;SDS011;53622;0.000;0.000;2023-10-31T01:13:02;0.50;;;0.30;;
66707;SDS011;53622;0.000;0.000;2023-10-31T01:15:31;0.22;;;0.20;;
66707;SDS011;53622;0.000;0.000;2023-10-31T01:17:59;0.50;;;0.30;;
66707;SDS011;53622;0.000;0.000;2023-10-31T01:20:28;0.25;;;0.15;;
66707;SDS011;53622;0.000;0.000;2023-10-31T01:22:57;0.50;;;0.30;;
66707;SDS011;53622;0.000;0.000;2023-10-31T01:25:25;0.30;;;0.30;;
66707;SDS011;53622;0.000;0.000;2023-10-31T01:27:54;0.88;;;0.32;;
66707;SDS011;53622;0.000;0.000;2023-10-31T01:30:25;0.35;;;0.20;;
66707;SDS011;53622;0.000;0.000;2023-10-31T01:32:53;0.93;;;0.20;;
66707;SDS011;53622;0.000;0.000;2023-10-31T01:35:22;0.50;;;0.40;;
66707;SDS011;53622;0.000;0.000;2023-10-31T01:37:51;0.28;;;0.20;;
66707;SDS011;53622;0.000;0.000;2023-10-31T01:40:19;0.38;;;0.20;;
66707;SDS011;53622;0.000;0.000;2023-10-31T01:42:48;0.28;;;0.25;;
66707;SDS011;53622;0.000;0.000;2023-10-31T01:45:17;0.30;;;0.20;;
66707;SDS011;53622;0.000;0.000;2023-10-31T01:47:47;0.60;;;0.30;;
66707;SDS011;53622;0.000;0.000;2023-10-31T01:50:17;0.38;;;0.20;;
66707;SDS011;53622;0.000;0.000;2023-10-31T01:52:46;0.28;;;0.28;;
66707;SDS011;53622;0.000;0.000;2023-10-31T01:55:16;0.30;;;0.30;;
66707;SDS011;53622;0.000;0.000;2023-10-31T01:57:44;0.30;;;0.20;;
66707;SDS011;53622;0.000;0.000;2023-10-31T02:00:15;0.20;;;0.20;;
66707;SDS011;53622;0.000;0.000;2023-10-31T02:02:44;0.20;;;0.20;;
66707;SDS011;53622;0.000;0.000;2023-10-31T02:05:15;0.28;;;0.20;;
66707;SDS011;53622;0.000;0.000;2023-10-31T02:07:44;0.50;;;0.30;;
66707;SDS011;53622;0.000;0.000;2023-10-31T02:10:14;0.30;;;0.30;;
66707;SDS011;53622;0.000;0.000;2023-10-31T02:12:43;0.40;;;0.22;;
66707;SDS011;53622;0.000;0.000;2023-10-31T02:15:11;1.08;;;0.30;;
66707;SDS011;53622;0.000;0.000;2023-10-31T02:17:40;0.68;;;0.22;;
66707;SDS011;53622;0.000;0.000;2023-10-31T02:20:09;0.30;;;0.22;;
66707;SDS011;53622;0.000;0.000;2023-10-31T02:22:40;0.65;;;0.30;;
66707;SDS011;53622;0.000;0.000;2023-10-31T02:25:15;0.30;;;0.28;;
66707;SDS011;53622;0.000;0.000;2023-10-31T02:27:45;0.35;;;0.25;;
66707;SDS011;53622;0.000;0.000;2023-10-31T02:30:13;0.75;;;0.20;;
66707;SDS011;53622;0.000;0.000;2023-10-31T02:32:42;0.93;;;0.40;;
66707;SDS011;53622;0.000;0.000;2023-10-31T02:35:11;1.27;;;0.20;;
66707;SDS011;53622;0.000;0.000;2023-10-31T02:37:42;0.63;;;0.20;;
66707;SDS011;53622;0.000;0.000;2023-10-31T02:40:12;0.77;;;0.22;;
66707;SDS011;53622;0.000;0.000;2023-10-31T02:42:41;0.47;;;0.38;;
66707;SDS011;53622;0.000;0.000;2023-10-31T02:45:10;0.52;;;0.22;;
66707;SDS011;53622;0.000;0.000;2023-10-31T02:47:39;0.60;;;0.40;;
66707;SDS011;53622;0.000;0.000;2023-10-31T02:50:08;0.98;;;0.40;;
66707;SDS011;53622;0.000;0.000;2023-10-31T02:52:37;0.30;;;0.30;;
66707;SDS011;53622;0.000;0.000;2023-10-31T02:55:07;0.40;;;0.30;;
66707;SDS011;53622;0.000;0.000;2023-10-31T02:57:36;0.28;;;0.28;;
66707;SDS011;53622;0.000;0.000;2023-10-31T03:00:06;0.55;;;0.40;;
66707;SDS011;53622;0.000;0.000;2023-10-31T03:02:35;0.52;;;0.40;;
66707;SDS011;53622;0.000;0.000;2023-10-31T03:05:05;0.28;;;0.20;;
66707;SDS011;53622;0.000;0.000;2023-10-31T03:07:34;0.30;;;0.30;;
66707;SDS011;53622;0.000;0.000;2023-10-31T03:10:03;1.75;;;0.30;;
66707;SDS011;53622;0.000;0.000;2023-10-31T03:12:34;0.57;;;0.20;;
66707;SDS011;53622;0.000;0.000;2023-10-31T03:15:03;0.40;;;0.20;;
66707;SDS011;53622;0.000;0.000;2023-10-31T03:17:32;0.43;;;0.20;;
66707;SDS011;53622;0.000;0.000;2023-10-31T03:20:01;0.85;;;0.17;;
66707;SDS011;53622;0.000;0.000;2023-10-31T03:22:30;0.25;;;0.20;;
66707;SDS011;53622;0.000;0.000;2023-10-31T03:24:59;0.68;;;0.22;;
66707;SDS011;53622;0.000;0.000;2023-10-31T03:27:28;1.30;;;0.20;;
66707;SDS011;53622;0.000;0.000;2023-10-31T03:29:59;0.20;;;0.20;;
66707;SDS011;53622;0.000;0.000;2023-10-31T03:32:28;1.65;;;0.40;;
66707;SDS011;53622;0.000;0.000;2023-10-31T03:34:56;1.17;;;0.20;;
66707;SDS011;53622;0.000;0.000;2023-10-31T03:37:25;0.77;;;0.20;;
66707;SDS011;53622;0.000;0.000;2023-10-31T03:39:54;0.35;;;0.20;;
66707;SDS011;53622;0.000;0.000;2023-10-31T03:42:22;0.65;;;0.30;;
66707;SDS011;53622;0.000;0.000;2023-10-31T03:44:51;0.60;;;0.35;;
66707;SDS011;53622;0.000;0.000;2023-10-31T03:47:21;0.47;;;0.28;;
66707;SDS011;53622;0.000;0.000;2023-10-31T03:49:50;2.50;;;0.20;;
66707;SDS011;53622;0.000;0.000;2023-10-31T03:52:19;0.55;;;0.20;;
66707;SDS011;53622;0.000;0.000;2023-10-31T03:54:48;0.50;;;0.30;;
66707;SDS011;53622;0.000;0.000;2023-10-31T03:57:16;0.20;;;0.20;;
66707;SDS011;53622;0.000;0.000;2023-10-31T03:59:45;0.88;;;0.40;;
66707;SDS011;53622;0.000;0.000;2023-10-31T04:02:14;0.55;;;0.30;;
66707;SDS011;53622;0.000;0.000;2023-10-31T04:04:44;0.30;;;0.20;;
66707;SDS011;53622;0.000;0.000;2023-10-31T04:07:13;0.30;;;0.22;;
66707;SDS011;53622;0.000;0.000;2023-10-31T04:09:41;1.02;;;0.22;;
66707;SDS011;53622;0.000;0.000;2023-10-31T04:12:11;1.33;;;0.30;;
66707;SDS011;53622;0.000;0.000;2023-10-31T04:14:39;0.43;;;0.25;;
66707;SDS011;53622;0.000;0.000;2023-10-31T04:17:08;0.30;;;0.20;;
66707;SDS011;53622;0.000;0.000;2023-10-31T04:19:37;0.52;;;0.20;;
66707;SDS011;53622;0.000;0.000;2023-10-31T04:22:07;0.35;;;0.25;;
66707;SDS011;53622;0.000;0.000;2023-10-31T04:24:35;0.28;;;0.20;;
66707;SDS011;53622;0.000;0.000;2023-10-31T04:27:04;0.20;;;0.20;;
66707;SDS011;53622;0.000;0.000;2023-10-31T04:29:34;0.43;;;0.20;;
66707;SDS011;53622;0.000;0.000;2023-10-31T04:32:02;0.30;;;0.28;;
66707;SDS011;53622;0.000;0.000;2023-10-31T04:34:32;0.22;;;0.22;;
66707;SDS011;53622;0.000;0.000;2023-10-31T04:37:00;0.38;;;0.30;;
66707;SDS011;53622;0.000;0.000;2023-10-31T04:39:30;0.60;;;0.40;;
66707;SDS011;53622;0.000;0.000;2023-10-31T04:41:59;0.52;;;0.25;;
66707;SDS011;53622;0.000;0.000;2023-10-31T04:44:28;0.28;;;0.25;;
66707;SDS011;53622;0.000;0.000;2023-10-31T04:46:56;0.88;;;0.30;;
66707;SDS011;53622;0.000;0.000;2023-10-31T04:49:25;0.30;;;0.30;;
66707;SDS011;53622;0.000;0.000;2023-10-31T04:51:54;0.70;;;0.40;;
66707;SDS011;53622;0.000;0.000;2023-10-31T04:54:22;0.50;;;0.30;;
66707;SDS011;53622;0.000;0.000;2023-10-31T04:56:52;0.43;;;0.30;;
66707;SDS011;53622;0.000;0.000;2023-10-31T04:59:21;0.38;;;0.20;;
66707;SDS011;53622;0.000;0.000;2023-10-31T05:01:50;0.57;;;0.30;;
66707;SDS011;53622;0.000;0.000;2023-10-31T05:04:19;1.23;;;0.20;;
66707;SDS011;53622;0.000;0.000;2023-10-31T05:06:48;0.35;;;0.35;;
66707;SDS011;53622;0.000;0.000;2023-10-31T05:09:16;0.30;;;0.30;;
66707;SDS011;53622;0.000;0.000;2023-10-31T05:11:47;0.30;;;0.20;;
66707;SDS011;53622;0.000;0.000;2023-10-31T05:14:17;0.43;;;0.20;;
66707;SDS011;53622;0.000;0.000;2023-10-31T05:16:46;1.02;;;0.40;;
66707;SDS011;53622;0.000;0.000;2023-10-31T05:19:14;0.25;;;0.20;;
66707;SDS011;53622;0.000;0.000;2023-10-31T05:21:43;7.70;;;0.40;;
66707;SDS011;53622;0.000;0.000;2023-10-31T05:24:12;0.82;;;0.32;;
66707;SDS011;53622;0.000;0.000;2023-10-31T05:26:40;2.60;;;0.50;;
66707;SDS011;53622;0.000;0.000;2023-10-31T05:29:10;2.05;;;0.50;;
66707;SDS011;53622;0.000;0.000;2023-10-31T05:31:40;4.00;;;0.40;;
66707;SDS011;53622;0.000;0.000;2023-10-31T05:34:10;5.95;;;0.60;;
66707;SDS011;53622;0.000;0.000;2023-10-31T05:36:38;1.65;;;0.43;;
66707;SDS011;53622;0.000;0.000;2023-10-31T05:39:07;0.60;;;0.50;;
66707;SDS011;53622;0.000;0.000;2023-10-31T05:41:36;1.33;;;0.45;;
66707;SDS011;53622;0.000;0.000;2023-10-31T05:44:05;1.20;;;0.60;;
66707;SDS011;53622;0.000;0.000;2023-10-31T05:46:37;0.88;;;0.70;;
66707;SDS011;53622;0.000;0.000;2023-10-31T05:49:08;1.25;;;0.45;;
66707;SDS011;53622;0.000;0.000;2023-10-31T05:51:37;0.57;;;0.47;;
66707;SDS011;53622;0.000;0.000;2023-10-31T05:54:06;0.95;;;0.60;;
66707;SDS011;53622;0.000;0.000;2023-10-31T05:56:35;2.47;;;0.60;;
66707;SDS011;53622;0.000;0.000;2023-10-31T05:59:04;1.98;;;0.55;;
66707;SDS011;53622;0.000;0.000;2023-10-31T06:01:33;0.80;;;0.35;;
66707;SDS011;53622;0.000;0.000;2023-10-31T06:04:02;1.52;;;0.70;;
66707;SDS011;53622;0.000;0.000;2023-10-31T06:06:33;1.08;;;0.55;;
66707;SDS011;53622;0.000;0.000;2023-10-31T06:09:04;0.95;;;0.50;;
66707;SDS011;53622;0.000;0.000;2023-10-31T06:11:33;1.45;;;0.68;;
66707;SDS011;53622;0.000;0.000;2023-10-31T06:14:02;1.02;;;0.47;;
66707;SDS011;53622;0.000;0.000;2023-10-31T06:16:32;0.50;;;0.40;;
66707;SDS011;53622;0.000;0.000;2023-10-31T06:19:01;1.90;;;0.63;;
66707;SDS011;53622;0.000;0.000;2023-10-31T06:21:29;1.13;;;0.60;;
66707;SDS011;53622;0.000;0.000;2023-10-31T06:23:59;2.15;;;0.70;;
66707;SDS011;53622;0.000;0.000;2023-10-31T06:26:28;2.05;;;0.50;;
66707;SDS011;53622;0.000;0.000;2023-10-31T06:28:57;2.30;;;0.63;;
66707;SDS011;53622;0.000;0.000;2023-10-31T06:31:46;1.80;;;0.70;;
66707;SDS011;53622;0.000;0.000;2023-10-31T06:34:15;2.65;;;0.43;;
66707;SDS011;53622;0.000;0.000;2023-10-31T06:36:44;1.70;;;0.50;;
66707;SDS011;53622;0.000;0.000;2023-10-31T06:39:14;2.22;;;0.47;;
66707;SDS011;53622;0.000;0.000;2023-10-31T06:41:42;1.45;;;0.47;;
66707;SDS011;53622;0.000;0.000;2023-10-31T06:44:11;1.50;;;0.45;;
66707;SDS011;53622;0.000;0.000;2023-10-31T06:46:40;2.78;;;0.70;;
66707;SDS011;53622;0.000;0.000;2023-10-31T06:49:09;2.10;;;0.60;;
66707;SDS011;53622;0.000;0.000;2023-10-31T06:51:37;1.38;;;0.68;;
66707;SDS011;53622;0.000;0.000;2023-10-31T06:54:06;3.35;;;0.60;;
66707;SDS011;53622;0.000;0.000;2023-10-31T06:56:36;2.50;;;0.43;;
66707;SDS011;53622;0.000;0.000;2023-10-31T06:59:05;2.38;;;0.50;;
66707;SDS011;53622;0.000;0.000;2023-10-31T07:01:35;0.52;;;0.43;;
66707;SDS011;53622;0.000;0.000;2023-10-31T07:04:05;2.15;;;0.63;;
66707;SDS011;53622;0.000;0.000;2023-10-31T07:06:33;1.60;;;0.55;;
66707;SDS011;53622;0.000;0.000;2023-10-31T07:09:02;1.92;;;0.63;;
66707;SDS011;53622;0.000;0.000;2023-10-31T07:11:32;1.00;;;0.50;;
66707;SDS011;53622;0.000;0.000;2023-10-31T07:14:02;1.00;;;0.60;;
66707;SDS011;53622;0.000;0.000;2023-10-31T07:16:31;1.10;;;0.52;;
66707;SDS011;53622;0.000;0.000;2023-10-31T07:19:00;0.65;;;0.50;;
66707;SDS011;53622;0.000;0.000;2023-10-31T07:21:29;0.60;;;0.40;;
66707;SDS011;53622;0.000;0.000;2023-10-31T07:23:58;1.27;;;0.52;;
66707;SDS011;53622;0.000;0.000;2023-10-31T07:26:26;0.40;;;0.40;;
66707;SDS011;53622;0.000;0.000;2023-10-31T07:28:55;0.63;;;0.50;;
66707;SDS011;53622;0.000;0.000;2023-10-31T07:31:25;0.73;;;0.50;;
66707;SDS011;53622;0.000;0.000;2023-10-31T07:33:54;1.55;;;0.40;;
66707;SDS011;53622;0.000;0.000;2023-10-31T07:36:23;2.15;;;0.45;;
66707;SDS011;53622;0.000;0.000;2023-10-31T07:38:52;0.75;;;0.35;;
66707;SDS011;53622;0.000;0.000;2023-10-31T07:41:20;0.80;;;0.45;;
66707;SDS011;53622;0.000;0.000;2023-10-31T07:43:49;0.50;;;0.43;;
66707;SDS011;53622;0.000;0.000;2023-10-31T07:46:18;1.02;;;0.60;;
66707;SDS011;53622;0.000;0.000;2023-10-31T07:48:48;1.23;;;0.30;;
66707;SDS011;53622;0.000;0.000;2023-10-31T07:51:17;0.30;;;0.30;;
66707;SDS011;53622;0.000;0.000;2023-10-31T07:53:46;0.85;;;0.35;;
66707;SDS011;53622;0.000;0.000;2023-10-31T07:56:15;0.50;;;0.50;;
66707;SDS011;53622;0.000;0.000;2023-10-31T07:58:43;0.90;;;0.35;;
66707;SDS011;53622;0.000;0.000;2023-10-31T08:01:12;0.75;;;0.63;;
66707;SDS011;53622;0.000;0.000;2023-10-31T08:03:41;1.05;;;0.57;;
66707;SDS011;53622;0.000;0.000;2023-10-31T08:06:11;0.40;;;0.40;;
66707;SDS011;53622;0.000;0.000;2023-10-31T08:08:40;1.83;;;0.50;;
66707;SDS011;53622;0.000;0.000;2023-10-31T08:11:09;0.73;;;0.60;;
66707;SDS011;53622;0.000;0.000;2023-10-31T08:13:38;0.43;;;0.43;;
66707;SDS011;53622;0.000;0.000;2023-10-31T08:16:07;0.50;;;0.30;;
66707;SDS011;53622;0.000;0.000;2023-10-31T08:18:36;0.32;;;0.30;;
66707;SDS011;53622;0.000;0.000;2023-10-31T08:21:05;2.53;;;0.50;;
66707;SDS011;53622;0.000;0.000;2023-10-31T08:23:35;0.50;;;0.50;;
66707;SDS011;53622;0.000;0.000;2023-10-31T08:26:05;0.43;;;0.40;;
66707;SDS011;53622;0.000;0.000;2023-10-31T08:28:33;1.08;;;0.70;;
66707;SDS011;53622;0.000;0.000;2023-10-31T08:31:02;0.47;;;0.45;;
66707;SDS011;53622;0.000;0.000;2023-10-31T08:33:31;0.82;;;0.55;;
66707;SDS011;53622;0.000;0.000;2023-10-31T08:36:00;0.52;;;0.43;;
66707;SDS011;53622;0.000;0.000;2023-10-31T08:38:29;0.50;;;0.50;;
66707;SDS011;53622;0.000;0.000;2023-10-31T08:41:00;0.60;;;0.52;;
66707;SDS011;53622;0.000;0.000;2023-10-31T08:43:28;0.65;;;0.52;;
66707;SDS011;53622;0.000;0.000;2023-10-31T08:45:57;0.50;;;0.50;;
66707;SDS011;53622;0.000;0.000;2023-10-31T08:48:26;0.35;;;0.35;;
66707;SDS011;53622;0.000;0.000;2023-10-31T08:50:54;2.90;;;0.60;;
66707;SDS011;53622;0.000;0.000;2023-10-31T08:53:23;1.08;;;0.40;;
66707;SDS011;53622;0.000;0.000;2023-10-31T08:55:52;0.40;;;0.40;;
66707;SDS011;53622;0.000;0.000;2023-10-31T08:58:22;1.52;;;0.47;;
66707;SDS011;53622;0.000;0.000;2023-10-31T09:00:50;0.40;;;0.40;;
66707;SDS011;53622;0.000;0.000;2023-10-31T09:03:19;0.55;;;0.35;;
66707;SDS011;53622;0.000;0.000;2023-10-31T09:05:48;0.50;;;0.50;;
66707;SDS011;53622;0.000;0.000;2023-10-31T09:08:17;0.93;;;0.50;;
66707;SDS011;53622;0.000;0.000;2023-10-31T09:10:45;0.50;;;0.47;;
66707;SDS011;53622;0.000;0.000;2023-10-31T09:13:14;0.93;;;0.50;;
66707;SDS011;53622;0.000;0.000;2023-10-31T09:15:44;1.15;;;0.50;;
66707;SDS011;53622;0.000;0.000;2023-10-31T09:18:13;1.95;;;0.50;;
66707;SDS011;53622;0.000;0.000;2023-10-31T09:20:42;0.60;;;0.40;;
66707;SDS011;53622;0.000;0.000;2023-10-31T09:23:11;0.40;;;0.40;;
66707;SDS011;53622;0.000;0.000;2023-10-31T09:25:40;0.85;;;0.47;;
66707;SDS011;53622;0.000;0.000;2023-10-31T09:28:08;0.43;;;0.40;;
66707;SDS011;53622;0.000;0.000;2023-10-31T09:30:37;0.40;;;0.40;;
66707;SDS011;53622;0.000;0.000;2023-10-31T09:33:09;0.40;;;0.40;;
66707;SDS011;53622;0.000;0.000;2023-10-31T09:35:38;0.57;;;0.50;;
66707;SDS011;53622;0.000;0.000;2023-10-31T09:38:06;0.50;;;0.50;;
66707;SDS011;53622;0.000;0.000;2023-10-31T09:40:36;1.10;;;0.40;;
66707;SDS011;53622;0.000;0.000;2023-10-31T09:43:06;0.60;;;0.60;;
66707;SDS011;53622;0.000;0.000;2023-10-31T09:45:35;0.40;;;0.40;;
66707;SDS011;53622;0.000;0.000;2023-10-31T09:48:04;0.50;;;0.50;;
66707;SDS011;53622;0.000;0.000;2023-10-31T09:50:35;0.93;;;0.55;;
66707;SDS011;53622;0.000;0.000;2023-10-31T09:53:05;0.60;;;0.55;;
66707;SDS011;53622;0.000;0.000;2023-10-31T09:55:35;0.45;;;0.45;;
66707;SDS011;53622;0.000;0.000;2023-10-31T09:58:04;0.90;;;0.60;;
66707;SDS011;53622;0.000;0.000;2023-10-31T10:00:33;0.45;;;0.40;;
66707;SDS011;53622;0.000;0.000;2023-10-31T10:03:03;0.40;;;0.40;;
66707;SDS011;53622;0.000;0.000;2023-10-31T10:05:32;0.63;;;0.50;;
66707;SDS011;53622;0.000;0.000;2023-10-31T10:08:04;0.38;;;0.38;;
66707;SDS011;53622;0.000;0.000;2023-10-31T10:10:33;0.50;;;0.50;;
66707;SDS011;53622;0.000;0.000;2023-10-31T10:13:02;0.35;;;0.35;;
66707;SDS011;53622;0.000;0.000;2023-10-31T10:15:42;0.43;;;0.40;;
66707;SDS011;53622;0.000;0.000;2023-10-31T10:18:22;0.98;;;0.47;;
66707;SDS011;53622;0.000;0.000;2023-10-31T10:20:58;0.50;;;0.47;;
66707;SDS011;53622;0.000;0.000;2023-10-31T10:23:27;0.60;;;0.60;;
66707;SDS011;53622;0.000;0.000;2023-10-31T10:25:59;0.50;;;0.43;;
66707;SDS011;53622;0.000;0.000;2023-10-31T10:28:28;0.50;;;0.50;;
66707;SDS011;53622;0.000;0.000;2023-10-31T10:30:57;0.50;;;0.50;;
66707;SDS011;53622;0.000;0.000;2023-10-31T10:33:26;0.50;;;0.50;;
66707;SDS011;53622;0.000;0.000;2023-10-31T10:35:54;0.45;;;0.40;;
66707;SDS011;53622;0.000;0.000;2023-10-31T10:38:24;0.95;;;0.50;;
66707;SDS011;53622;0.000;0.000;2023-10-31T10:40:55;0.63;;;0.50;;
66707;SDS011;53622;0.000;0.000;2023-10-31T10:43:25;1.23;;;0.47;;
66707;SDS011;53622;0.000;0.000;2023-10-31T10:45:56;0.50;;;0.40;;
66707;SDS011;53622;0.000;0.000;2023-10-31T10:48:26;0.88;;;0.45;;
66707;SDS011;53622;0.000;0.000;2023-10-31T10:50:57;0.30;;;0.30;;
66707;SDS011;53622;0.000;0.000;2023-10-31T10:53:30;0.73;;;0.43;;
66707;SDS011;53622;0.000;0.000;2023-10-31T10:56:07;0.43;;;0.43;;
66707;SDS011;53622;0.000;0.000;2023-10-31T10:58:44;0.60;;;0.50;;
66707;SDS011;53622;0.000;0.000;2023-10-31T11:01:20;0.88;;;0.40;;
66707;SDS011;53622;0.000;0.000;2023-10-31T11:03:49;0.43;;;0.40;;
66707;SDS011;53622;0.000;0.000;2023-10-31T11:06:19;0.50;;;0.50;;
66707;SDS011;53622;0.000;0.000;2023-10-31T11:08:50;1.05;;;0.32;;
66707;SDS011;53622;0.000;0.000;2023-10-31T11:11:21;0.68;;;0.55;;
66707;SDS011;53622;0.000;0.000;2023-10-31T11:13:51;0.35;;;0.35;;
66707;SDS011;53622;0.000;0.000;2023-10-31T11:16:21;0.82;;;0.40;;
66707;SDS011;53622;0.000;0.000;2023-10-31T11:18:54;0.50;;;0.50;;
66707;SDS011;53622;0.000;0.000;2023-10-31T11:21:23;0.40;;;0.40;;
66707;SDS011;53622;0.000;0.000;2023-10-31T11:24:00;0.50;;;0.50;;
66707;SDS011;53622;0.000;0.000;2023-10-31T11:26:30;0.45;;;0.45;;
66707;SDS011;53622;0.000;0.000;2023-10-31T11:29:02;0.57;;;0.57;;
66707;SDS011;53622;0.000;0.000;2023-10-31T11:31:32;0.50;;;0.43;;
66707;SDS011;53622;0.000;0.000;2023-10-31T11:34:01;0.63;;;0.63;;
66707;SDS011;53622;0.000;0.000;2023-10-31T11:36:30;0.50;;;0.50;;
66707;SDS011;53622;0.000;0.000;2023-10-31T11:39:11;0.88;;;0.63;;
66707;SDS011;53622;0.000;0.000;2023-10-31T11:41:45;0.73;;;0.45;;
66707;SDS011;53622;0.000;0.000;2023-10-31T11:44:17;0.57;;;0.57;;
66707;SDS011;53622;0.000;0.000;2023-10-31T11:46:46;1.98;;;0.50;;
66707;SDS011;53622;0.000;0.000;2023-10-31T11:49:18;0.50;;;0.50;;
66707;SDS011;53622;0.000;0.000;2023-10-31T11:52:13;0.80;;;0.43;;
66707;SDS011;53622;0.000;0.000;2023-10-31T11:54:44;1.30;;;0.70;;
66707;SDS011;53622;0.000;0.000;2023-10-31T11:57:25;0.60;;;0.40;;
66707;SDS011;53622;0.000;0.000;2023-10-31T11:59:55;0.88;;;0.60;;
66707;SDS011;53622;0.000;0.000;2023-10-31T12:02:24;0.45;;;0.45;;
66707;SDS011;53622;0.000;0.000;2023-10-31T12:05:05;0.50;;;0.50;;
66707;SDS011;53622;0.000;0.000;2023-10-31T12:07:44;0.80;;;0.45;;
66707;SDS011;53622;0.000;0.000;2023-10-31T12:10:20;0.55;;;0.50;;
66707;SDS011;53622;0.000;0.000;2023-10-31T12:12:50;0.50;;;0.50;;
66707;SDS011;53622;0.000;0.000;2023-10-31T12:15:19;0.65;;;0.50;;
66707;SDS011;53622;0.000;0.000;2023-10-31T12:17:48;0.40;;;0.40;;
66707;SDS011;53622;0.000;0.000;2023-10-31T12:20:17;0.60;;;0.60;;
66707;SDS011;53622;0.000;0.000;2023-10-31T12:22:46;0.50;;;0.47;;
66707;SDS011;53622;0.000;0.000;2023-10-31T12:25:16;0.65;;;0.45;;
66707;SDS011;53622;0.000;0.000;2023-10-31T12:27:45;1.25;;;0.70;;
66707;SDS011;53622;0.000;0.000;2023-10-31T12:30:17;1.58;;;0.50;;
66707;SDS011;53622;0.000;0.000;2023-10-31T12:32:53;0.52;;;0.50;;
66707;SDS011;53622;0.000;0.000;2023-10-31T12:35:23;0.85;;;0.47;;
66707;SDS011;53622;0.000;0.000;2023-10-31T12:37:53;0.98;;;0.57;;
66707;SDS011;53622;0.000;0.000;2023-10-31T12:40:25;1.00;;;0.60;;
66707;SDS011;53622;0.000;0.000;2023-10-31T12:42:54;0.63;;;0.50;;
66707;SDS011;53622;0.000;0.000;2023-10-31T12:45:24;0.47;;;0.47;;
66707;SDS011;53622;0.000;0.000;2023-10-31T12:48:00;0.40;;;0.40;;
66707;SDS011;53622;0.000;0.000;2023-10-31T12:50:30;0.30;;;0.30;;
66707;SDS011;53622;0.000;0.000;2023-10-31T12:52:59;0.88;;;0.50;;
66707;SDS011;53622;0.000;0.000;2023-10-31T12:55:37;1.27;;;0.52;;
66707;SDS011;53622;0.000;0.000;2023-10-31T12:58:09;0.40;;;0.40;;
66707;SDS011;53622;0.000;0.000;2023-10-31T13:00:47;1.10;;;0.40;;
66707;SDS011;53622;0.000;0.000;2023-10-31T13:03:16;0.52;;;0.52;;
66707;SDS011;53622;0.000;0.000;2023-10-31T13:05:47;0.45;;;0.45;;
66707;SDS011;53622;0.000;0.000;2023-10-31T13:08:15;2.00;;;0.50;;
66707;SDS011;53622;0.000;0.000;2023-10-31T13:10:46;0.50;;;0.50;;
66707;SDS011;53622;0.000;0.000;2023-10-31T13:13:14;1.02;;;0.50;;
66707;SDS011;53622;0.000;0.000;2023-10-31T13:15:43;0.65;;;0.50;;
66707;SDS011;53622;0.000;0.000;2023-10-31T13:18:12;0.60;;;0.60;;
66707;SDS011;53622;0.000;0.000;2023-10-31T13:20:42;0.50;;;0.50;;
66707;SDS011;53622;0.000;0.000;2023-10-31T13:23:11;0.50;;;0.50;;
66707;SDS011;53622;0.000;0.000;2023-10-31T13:25:40;0.60;;;0.50;;
66707;SDS011;53622;0.000;0.000;2023-10-31T13:28:10;0.30;;;0.30;;
66707;SDS011;53622;0.000;0.000;2023-10-31T13:30:41;0.55;;;0.40;;
66707;SDS011;53622;0.000;0.000;2023-10-31T13:33:09;0.77;;;0.50;;
66707;SDS011;53622;0.000;0.000;2023-10-31T13:35:38;0.50;;;0.45;;
66707;SDS011;53622;0.000;0.000;2023-10-31T13:38:07;0.60;;;0.57;;
66707;SDS011;53622;0.000;0.000;2023-10-31T13:40:36;1.02;;;0.50;;
66707;SDS011;53622;0.000;0.000;2023-10-31T13:43:04;0.60;;;0.40;;
66707;SDS011;53622;0.000;0.000;2023-10-31T13:45:35;1.95;;;0.60;;
66707;SDS011;53622;0.000;0.000;2023-10-31T13:48:04;0.40;;;0.30;;
66707;SDS011;53622;0.000;0.000;2023-10-31T13:50:33;0.43;;;0.30;;
66707;SDS011;53622;0.000;0.000;2023-10-31T13:53:02;0.70;;;0.40;;
66707;SDS011;53622;0.000;0.000;2023-10-31T13:55:32;1.38;;;0.40;;
66707;SDS011;53622;0.000;0.000;2023-10-31T13:58:00;0.63;;;0.40;;
66707;SDS011;53622;0.000;0.000;2023-10-31T14:00:29;0.60;;;0.35;;
66707;SDS011;53622;0.000;0.000;2023-10-31T14:02:59;0.43;;;0.40;;
66707;SDS011;53622;0.000;0.000;2023-10-31T14:05:28;0.75;;;0.65;;
66707;SDS011;53622;0.000;0.000;2023-10-31T14:07:59;0.85;;;0.40;;
66707;SDS011;53622;0.000;0.000;2023-10-31T14:10:28;0.52;;;0.50;;
66707;SDS011;53622;0.000;0.000;2023-10-31T14:12:58;0.47;;;0.47;;
66707;SDS011;53622;0.000;0.000;2023-10-31T14:15:27;0.63;;;0.57;;
66707;SDS011;53622;0.000;0.000;2023-10-31T14:17:55;0.95;;;0.60;;
66707;SDS011;53622;0.000;0.000;2023-10-31T14:20:26;0.40;;;0.40;;
66707;SDS011;53622;0.000;0.000;2023-10-31T14:22:54;0.40;;;0.40;;
66707;SDS011;53622;0.000;0.000;2023-10-31T14:25:23;0.30;;;0.25;;
66707;SDS011;53622;0.000;0.000;2023-10-31T14:27:52;0.35;;;0.35;;
66707;SDS011;53622;0.000;0.000;2023-10-31T14:30:21;0.88;;;0.50;;
66707;SDS011;53622;0.000;0.000;2023-10-31T14:32:50;0.40;;;0.40;;
66707;SDS011;53622;0.000;0.000;2023-10-31T14:35:19;0.82;;;0.50;;
66707;SDS011;53622;0.000;0.000;2023-10-31T14:37:49;0.60;;;0.50;;
66707;SDS011;53622;0.000;0.000;2023-10-31T14:40:18;0.43;;;0.43;;
66707;SDS011;53622;0.000;0.000;2023-10-31T14:42:46;0.55;;;0.50;;
66707;SDS011;53622;0.000;0.000;2023-10-31T14:45:16;0.90;;;0.47;;
66707;SDS011;53622;0.000;0.000;2023-10-31T14:47:45;0.40;;;0.40;;
66707;SDS011;53622;0.000;0.000;2023-10-31T14:50:14;0.40;;;0.40;;
66707;SDS011;53622;0.000;0.000;2023-10-31T14:52:43;0.52;;;0.50;;
66707;SDS011;53622;0.000;0.000;2023-10-31T14:55:13;0.85;;;0.40;;
66707;SDS011;53622;0.000;0.000;2023-10-31T14:57:44;0.25;;;0.25;;
66707;SDS011;53622;0.000;0.000;2023-10-31T15:00:13;0.30;;;0.30;;
66707;SDS011;53622;0.000;0.000;2023-10-31T15:02:42;0.32;;;0.30;;
66707;SDS011;53622;0.000;0.000;2023-10-31T15:05:11;0.50;;;0.32;;
66707;SDS011;53622;0.000;0.000;2023-10-31T15:07:40;0.57;;;0.40;;
66707;SDS011;53622;0.000;0.000;2023-10-31T15:10:09;0.75;;;0.40;;
66707;SDS011;53622;0.000;0.000;2023-10-31T15:12:39;0.80;;;0.30;;
66707;SDS011;53622;0.000;0.000;2023-10-31T15:15:09;0.30;;;0.30;;